createdAt,value
2022-10-14T00:01:12.509Z,101136.44
2022-10-14T00:03:57.554Z,101142.84
2022-10-14T00:06:42.648Z,101132.66
2022-10-14T00:09:27.571Z,101130.84
2022-10-14T00:12:12.898Z,101136.72
2022-10-14T00:14:58.205Z,101127.19
2022-10-14T00:17:43.421Z,101140.94
2022-10-14T00:20:29.773Z,101133.00
2022-10-14T00:23:14.684Z,101128.50
2022-10-14T00:25:59.756Z,101126.59
2022-10-14T00:28:45.135Z,101103.97
2022-10-14T00:31:30.971Z,101092.34
2022-10-14T00:34:16.336Z,101091.41
2022-10-14T00:37:01.702Z,101087.81
2022-10-14T00:39:47.019Z,101098.97
2022-10-14T00:42:35.351Z,101064.84
2022-10-14T00:45:23.125Z,101078.72
2022-10-14T00:48:09.497Z,101078.63
2022-10-14T00:50:57.183Z,101077.28
2022-10-14T00:53:43.524Z,101084.00
2022-10-14T00:56:29.887Z,101054.81
2022-10-14T00:59:15.826Z,101078.88
2022-10-14T01:02:01.066Z,101059.28
2022-10-14T01:04:46.598Z,101067.69
2022-10-14T01:07:34.442Z,101075.25
2022-10-14T01:10:32.982Z,101080.50
2022-10-14T01:13:29.235Z,101076.97
2022-10-14T01:16:25.529Z,101056.97
2022-10-14T01:19:29.829Z,101068.97
2022-10-14T01:22:27.193Z,101080.28
2022-10-14T01:25:25.913Z,101077.88
2022-10-14T01:28:19.341Z,101075.97
2022-10-14T01:31:10.730Z,101084.88
2022-10-14T01:33:59.813Z,101092.88
2022-10-14T01:36:52.033Z,101099.75
2022-10-14T01:39:43.606Z,101094.91
2022-10-14T01:42:33.939Z,101091.53
2022-10-14T01:45:22.170Z,101088.47
2022-10-14T01:48:08.005Z,101080.38
2022-10-14T01:50:57.115Z,101071.75
2022-10-14T01:53:49.252Z,101060.22
2022-10-14T01:56:40.189Z,101051.44
2022-10-14T01:59:26.784Z,101048.69
2022-10-14T02:02:13.117Z,101036.00
2022-10-14T02:04:58.119Z,101043.03
2022-10-14T02:07:47.162Z,101038.56
2022-10-14T02:10:58.286Z,101049.69
2022-10-14T02:14:11.248Z,101042.88
2022-10-14T02:17:07.157Z,101054.06
2022-10-14T02:20:08.063Z,101056.69
2022-10-14T02:23:00.042Z,101009.25
2022-10-14T02:25:47.490Z,101034.13
2022-10-14T02:28:33.807Z,101020.16
2022-10-14T02:31:20.702Z,101020.84
2022-10-14T02:34:11.290Z,101019.91
2022-10-14T02:36:57.248Z,101016.00
2022-10-14T02:39:48.673Z,101022.06
2022-10-14T02:42:33.823Z,101015.78
2022-10-14T02:45:19.910Z,101020.81
2022-10-14T02:48:05.623Z,101011.25
2022-10-14T02:50:50.866Z,101002.47
2022-10-14T02:53:35.761Z,100970.97
2022-10-14T02:56:20.608Z,100997.09
2022-10-14T02:59:06.012Z,100993.66
2022-10-14T03:01:51.370Z,100983.28
2022-10-14T03:04:36.624Z,100974.38
2022-10-14T03:07:21.876Z,100978.13
2022-10-14T03:10:06.976Z,100937.38
2022-10-14T03:12:52.253Z,100974.25
2022-10-14T03:15:37.265Z,100967.53
2022-10-14T03:18:22.275Z,100962.31
2022-10-14T03:21:07.221Z,100959.38
2022-10-14T03:23:52.987Z,100964.75
2022-10-14T03:26:37.958Z,100965.47
2022-10-14T03:29:22.951Z,100964.31
2022-10-14T03:32:07.872Z,100951.94
2022-10-14T03:34:52.718Z,100915.28
2022-10-14T03:37:37.710Z,100924.44
2022-10-14T03:40:22.875Z,100952.69
2022-10-14T03:43:07.788Z,100952.84
2022-10-14T03:45:52.687Z,100946.03
2022-10-14T03:48:38.033Z,100951.28
2022-10-14T03:51:23.941Z,100924.84
2022-10-14T03:54:09.122Z,100956.34
2022-10-14T03:56:54.377Z,100960.63
2022-10-14T03:59:39.347Z,100952.97
2022-10-14T04:02:24.749Z,100951.50
2022-10-14T04:05:11.070Z,100961.66
2022-10-14T04:07:56.124Z,100965.00
2022-10-14T04:10:41.019Z,100936.25
2022-10-14T04:13:25.984Z,100952.19
2022-10-14T04:16:12.011Z,100946.25
2022-10-14T04:18:58.749Z,100939.44
2022-10-14T04:21:44.473Z,100932.06
2022-10-14T04:24:30.459Z,100930.88
2022-10-14T04:27:15.433Z,100921.53
2022-10-14T04:30:00.625Z,100926.38
2022-10-14T04:32:46.805Z,100891.22
2022-10-14T04:35:31.805Z,100920.75
2022-10-14T04:38:16.887Z,100924.81
2022-10-14T04:41:02.074Z,100896.41
2022-10-14T04:43:47.337Z,100885.28
2022-10-14T04:46:32.602Z,100893.38
2022-10-14T04:49:18.118Z,100898.09
2022-10-14T04:52:03.213Z,100902.41
2022-10-14T04:54:48.527Z,100895.19
2022-10-14T04:57:33.541Z,100900.44
2022-10-14T05:00:18.920Z,100895.19
2022-10-14T05:03:04.408Z,100873.03
2022-10-14T05:05:50.984Z,100890.56
2022-10-14T05:08:36.747Z,100886.38
2022-10-14T05:11:21.755Z,100888.88
2022-10-14T05:14:06.989Z,100887.00
2022-10-14T05:16:51.955Z,100897.69
2022-10-14T05:19:36.949Z,100901.28
2022-10-14T05:22:22.428Z,100879.03
2022-10-14T05:25:08.395Z,100879.13
2022-10-14T05:27:53.777Z,100888.25
2022-10-14T05:30:38.778Z,100883.34
2022-10-14T05:33:23.611Z,100877.75
2022-10-14T05:36:09.422Z,100877.56
2022-10-14T05:38:58.573Z,100844.38
2022-10-14T05:41:43.687Z,100867.25
2022-10-14T05:44:28.919Z,100867.69
2022-10-14T05:47:14.701Z,100859.59
2022-10-14T05:50:03.049Z,100849.97
2022-10-14T05:52:48.341Z,100868.13
2022-10-14T05:55:33.572Z,100867.69
2022-10-14T05:58:18.838Z,100858.03
2022-10-14T06:01:06.742Z,100869.16
2022-10-14T06:03:52.168Z,100866.88
2022-10-14T06:06:37.215Z,100872.97
2022-10-14T06:09:22.249Z,100880.28
2022-10-14T06:12:07.601Z,100871.59
2022-10-14T06:14:52.611Z,100824.59
2022-10-14T06:17:37.511Z,100849.25
2022-10-14T06:20:22.828Z,100846.19
2022-10-14T06:23:07.956Z,100842.63
2022-10-14T06:25:53.337Z,100859.50
2022-10-14T06:28:38.738Z,100857.94
2022-10-14T06:31:27.433Z,100861.19
2022-10-14T06:34:15.215Z,100862.13
2022-10-14T06:37:02.407Z,100848.91
2022-10-14T06:39:47.762Z,100853.31
2022-10-14T06:42:34.435Z,100848.81
2022-10-14T06:45:19.832Z,100821.22
2022-10-14T06:48:05.317Z,100852.41
2022-10-14T06:50:50.464Z,100833.28
2022-10-14T06:53:35.355Z,100855.94
2022-10-14T06:56:20.661Z,100860.34
2022-10-14T06:59:05.882Z,100856.97
2022-10-14T07:01:51.226Z,100858.69
2022-10-14T07:04:36.858Z,100865.59
2022-10-14T07:07:22.052Z,100865.50
2022-10-14T07:10:07.428Z,100863.59
2022-10-14T07:12:56.268Z,100828.34
2022-10-14T07:15:41.260Z,100858.03
2022-10-14T07:18:26.537Z,100840.34
2022-10-14T07:21:11.801Z,100846.81
2022-10-14T07:23:56.738Z,100848.94
2022-10-14T07:26:41.918Z,100859.84
2022-10-14T07:29:27.119Z,100862.78
2022-10-14T07:32:12.327Z,100845.03
2022-10-14T07:34:57.296Z,100864.88
2022-10-14T07:37:42.790Z,100866.47
2022-10-14T07:40:27.635Z,100869.47
2022-10-14T07:43:12.480Z,100868.66
2022-10-14T07:46:02.668Z,100866.84
2022-10-14T07:48:57.976Z,100854.56
2022-10-14T07:51:43.791Z,100833.94
2022-10-14T07:54:31.014Z,100840.41
2022-10-14T07:57:16.739Z,100830.34
2022-10-14T08:00:01.886Z,100860.56
2022-10-14T08:02:46.903Z,100869.56
2022-10-14T08:05:39.259Z,100861.38
2022-10-14T08:08:24.260Z,100859.69
2022-10-14T08:11:17.163Z,100861.34
2022-10-14T08:14:02.231Z,100879.78
2022-10-14T08:16:47.610Z,100865.31
2022-10-14T08:19:32.729Z,100883.09
2022-10-14T08:22:17.698Z,100866.63
2022-10-14T08:25:03.106Z,100885.06
2022-10-14T08:27:54.261Z,100865.81
2022-10-14T08:30:39.649Z,100880.25
2022-10-14T08:33:24.927Z,100907.69
2022-10-14T08:36:10.409Z,100916.69
2022-10-14T08:38:55.681Z,100893.75
2022-10-14T08:42:09.817Z,100891.38
2022-10-14T08:45:08.102Z,100865.84
2022-10-14T08:47:57.139Z,100881.88
2022-10-14T08:50:57.066Z,100888.09
2022-10-14T08:53:50.229Z,100879.50
2022-10-14T08:56:37.879Z,100873.31
2022-10-14T08:59:24.087Z,100855.25
2022-10-14T09:02:37.313Z,100861.22
2022-10-14T09:05:25.128Z,100871.19
2022-10-14T09:08:16.061Z,100879.81
2022-10-14T09:11:01.857Z,100872.84
2022-10-14T09:13:53.140Z,100857.66
2022-10-14T09:16:40.360Z,100875.13
2022-10-14T09:19:32.866Z,100848.91
2022-10-14T09:22:17.970Z,100848.88
2022-10-14T09:25:03.361Z,100851.97
2022-10-14T09:27:49.694Z,100864.19
2022-10-14T09:30:38.951Z,100845.88
2022-10-14T09:33:27.358Z,100854.59
2022-10-14T09:36:17.470Z,100859.16
2022-10-14T09:39:05.490Z,100856.97
2022-10-14T09:41:54.262Z,100828.63
2022-10-14T09:44:39.545Z,100838.28
2022-10-14T09:47:25.180Z,100836.16
2022-10-14T09:50:19.512Z,100828.19
2022-10-14T09:53:16.710Z,100824.31
2022-10-14T09:56:04.995Z,100816.75
2022-10-14T09:58:57.258Z,100823.13
2022-10-14T10:01:50.117Z,100819.34
2022-10-14T10:04:41.907Z,100821.97
2022-10-14T10:07:33.332Z,100803.66
2022-10-14T10:10:22.518Z,100813.28
2022-10-14T10:13:36.076Z,100808.19
2022-10-14T10:16:25.529Z,100793.78
2022-10-14T10:19:32.406Z,100819.06
2022-10-14T10:22:22.889Z,100822.91
2022-10-14T10:25:08.278Z,100812.84
2022-10-14T10:27:54.943Z,100796.00
2022-10-14T10:31:29.990Z,100797.94
2022-10-14T10:34:39.835Z,100791.13
2022-10-14T10:37:26.805Z,100788.19
2022-10-14T10:40:18.418Z,100775.38
2022-10-14T10:43:51.564Z,100771.78
2022-10-14T10:46:52.650Z,100780.53
2022-10-14T10:49:59.286Z,100777.19
2022-10-14T10:53:15.918Z,100764.41
2022-10-14T10:56:28.592Z,100763.16
2022-10-14T10:59:30.331Z,100771.91
2022-10-14T11:02:59.472Z,100768.03
2022-10-14T11:05:44.489Z,100742.00
2022-10-14T11:09:09.565Z,100763.28
2022-10-14T11:12:15.594Z,100751.69
2022-10-14T11:15:23.712Z,100739.00
2022-10-14T11:18:24.972Z,100753.16
2022-10-14T11:21:14.912Z,100748.78
2022-10-14T11:24:09.260Z,100735.03
2022-10-14T11:26:59.872Z,100737.22
2022-10-14T11:29:50.425Z,100718.97
2022-10-14T11:32:58.406Z,100743.34
2022-10-14T11:36:08.669Z,100737.50
2022-10-14T11:39:24.874Z,100726.38
2022-10-14T11:42:13.786Z,100719.63
2022-10-14T11:45:12.933Z,100720.47
2022-10-14T11:48:22.541Z,100725.03
2022-10-14T11:51:35.555Z,100723.34
2022-10-14T11:54:28.584Z,100695.97
2022-10-14T11:57:38.301Z,100714.72
2022-10-14T12:00:45.449Z,100669.81
2022-10-14T12:04:04.121Z,100701.28
2022-10-14T12:06:57.380Z,100697.56
2022-10-14T12:09:48.423Z,100701.47
2022-10-14T12:12:34.433Z,100690.34
2022-10-14T12:15:22.870Z,100686.56
2022-10-14T12:18:11.524Z,100688.34
2022-10-14T12:21:15.524Z,100678.03
2022-10-14T12:24:21.952Z,100678.69
2022-10-14T12:27:11.124Z,100679.78
2022-10-14T12:29:58.547Z,100665.31
2022-10-14T12:33:03.683Z,100663.53
2022-10-14T12:36:00.002Z,100668.59
2022-10-14T12:39:17.248Z,100671.63
2022-10-14T12:42:05.392Z,100664.53
2022-10-14T12:44:56.058Z,100657.16
2022-10-14T12:47:41.715Z,100662.09
2022-10-14T12:50:42.443Z,100664.59
2022-10-14T12:53:32.359Z,100656.81
2022-10-14T12:56:33.724Z,100657.06
2022-10-14T12:59:39.836Z,100639.16
2022-10-14T13:02:32.368Z,100650.19
2022-10-14T13:05:30.186Z,100640.06
2022-10-14T13:08:15.402Z,100639.84
2022-10-14T13:11:02.306Z,100646.13
2022-10-14T13:13:51.525Z,100652.09
2022-10-14T13:16:36.886Z,100642.22
2022-10-14T13:19:34.612Z,100638.97
2022-10-14T13:22:28.463Z,100620.84
2022-10-14T13:25:20.133Z,100618.97
2022-10-14T13:28:20.401Z,100598.16
2022-10-14T13:31:15.687Z,100614.56
2022-10-14T13:34:20.318Z,100611.38
2022-10-14T13:37:34.931Z,100613.75
2022-10-14T13:40:43.354Z,100594.28
2022-10-14T13:43:42.738Z,100595.66
2022-10-14T13:46:36.650Z,100596.41
2022-10-14T13:49:33.552Z,100585.09
2022-10-14T13:52:24.322Z,100584.84
2022-10-14T13:55:19.711Z,100569.34
2022-10-14T13:58:14.295Z,100581.59
2022-10-14T14:01:05.377Z,100571.22
2022-10-14T14:03:53.502Z,100576.09
2022-10-14T14:07:03.194Z,100568.91
2022-10-14T14:09:54.355Z,100567.06
2022-10-14T14:12:43.029Z,100564.00
2022-10-14T14:15:29.376Z,100558.28
2022-10-14T14:18:56.163Z,100565.19
2022-10-14T14:21:41.789Z,100560.38
2022-10-14T14:24:29.381Z,100554.63
2022-10-14T14:27:17.949Z,100560.75
2022-10-14T14:30:08.350Z,100555.78
2022-10-14T14:32:55.873Z,100559.72
2022-10-14T14:35:52.217Z,100563.63
2022-10-14T14:38:37.771Z,100574.53
2022-10-14T14:41:26.567Z,100571.09
2022-10-14T14:44:25.084Z,100561.53
2022-10-14T14:47:11.671Z,100546.69
2022-10-14T14:50:25.019Z,100552.44
2022-10-14T14:53:10.847Z,100554.41
2022-10-14T14:55:56.105Z,100561.94
2022-10-14T14:58:52.770Z,100558.47
2022-10-14T15:01:42.905Z,100552.78
2022-10-14T15:04:32.150Z,100526.09
2022-10-14T15:07:21.850Z,100529.41
2022-10-14T15:10:08.524Z,100535.50
2022-10-14T15:12:56.168Z,100536.09
2022-10-14T15:15:53.528Z,100518.13
2022-10-14T15:18:43.527Z,100528.59
2022-10-14T15:21:28.876Z,100500.22
2022-10-14T15:24:20.675Z,100533.84
2022-10-14T15:27:35.336Z,100529.94
2022-10-14T15:30:23.846Z,100534.09
2022-10-14T15:33:19.674Z,100542.47
2022-10-14T15:36:05.003Z,100542.22
2022-10-14T15:38:56.200Z,100537.31
2022-10-14T15:41:41.842Z,100523.28
2022-10-14T15:44:27.084Z,100504.69
2022-10-14T15:47:21.613Z,100516.88
2022-10-14T15:50:12.938Z,100517.47
2022-10-14T15:52:58.124Z,100503.75
2022-10-14T15:55:44.104Z,100492.47
2022-10-14T15:58:29.235Z,100508.59
2022-10-14T16:01:23.169Z,100504.44
2022-10-14T16:04:19.630Z,100502.38
2022-10-14T16:07:04.645Z,100509.53
2022-10-14T16:09:49.826Z,100502.75
2022-10-14T16:12:35.081Z,100502.50
2022-10-14T16:15:28.143Z,100489.16
2022-10-14T16:18:13.438Z,100507.50
2022-10-14T16:20:58.281Z,100503.34
2022-10-14T16:23:43.803Z,100506.28
2022-10-14T16:26:29.379Z,100505.28
2022-10-14T16:29:15.328Z,100495.81
2022-10-14T16:32:00.573Z,100498.00
2022-10-14T16:34:45.840Z,100497.88
2022-10-14T16:37:31.066Z,100477.22
2022-10-14T16:40:16.266Z,100484.75
2022-10-14T16:43:01.566Z,100480.16
2022-10-14T16:45:46.713Z,100470.50
2022-10-14T16:48:35.675Z,100494.25
2022-10-14T16:54:05.611Z,100501.16
2022-10-14T16:56:53.811Z,100504.38
2022-10-14T16:59:39.063Z,100494.13
2022-10-14T17:02:31.733Z,100486.78
2022-10-14T17:05:17.599Z,100485.66
2022-10-14T17:08:02.850Z,100477.59
2022-10-14T17:10:47.839Z,100492.75
2022-10-14T17:13:32.917Z,100506.22
2022-10-14T17:16:18.342Z,100488.44
2022-10-14T17:19:03.392Z,100480.41
2022-10-14T17:21:49.045Z,100509.25
2022-10-14T17:24:34.069Z,100506.22
2022-10-14T17:27:24.154Z,100470.66
2022-10-14T17:30:09.823Z,100499.00
2022-10-14T17:32:54.988Z,100488.44
2022-10-14T17:35:40.185Z,100505.94
2022-10-14T17:38:27.626Z,100512.31
2022-10-14T17:41:14.162Z,100507.84
2022-10-14T17:44:01.357Z,100509.81
2022-10-14T17:46:46.604Z,100506.47
2022-10-14T17:49:31.727Z,100520.91
2022-10-14T17:52:17.118Z,100511.91
2022-10-14T17:55:02.122Z,100501.31
2022-10-14T17:57:47.494Z,100517.69
2022-10-14T18:00:32.335Z,100504.22
2022-10-14T18:03:18.433Z,100510.31
2022-10-14T18:06:13.787Z,100497.53
2022-10-14T18:09:01.687Z,100493.09
2022-10-14T18:12:07.670Z,100517.00
2022-10-14T18:14:53.373Z,100510.88
2022-10-14T18:17:39.336Z,100516.28
2022-10-14T18:20:24.515Z,100517.25
2022-10-14T18:23:11.340Z,100515.59
2022-10-14T18:26:14.142Z,100508.13
2022-10-14T18:28:59.489Z,100494.06
2022-10-14T18:31:44.615Z,100502.41
2022-10-14T18:34:29.945Z,100506.44
2022-10-14T18:37:15.191Z,100496.16
2022-10-14T18:40:00.478Z,100514.25
2022-10-14T18:42:46.274Z,100517.81
2022-10-14T18:45:34.659Z,100517.00
2022-10-14T18:48:22.510Z,100528.25
2022-10-14T18:51:08.803Z,100529.94
2022-10-14T18:53:57.322Z,100524.22
2022-10-14T18:56:44.359Z,100524.22
2022-10-14T18:59:29.461Z,100526.00
2022-10-14T19:02:14.536Z,100533.06
2022-10-14T19:04:59.857Z,100527.53
2022-10-14T19:07:44.997Z,100502.94
2022-10-14T19:10:30.724Z,100513.34
2022-10-14T19:13:15.956Z,100506.69
2022-10-14T19:16:01.849Z,100502.91
2022-10-14T19:18:48.016Z,100520.69
2022-10-14T19:21:33.536Z,100525.28
2022-10-14T19:24:18.709Z,100514.16
2022-10-14T19:27:03.988Z,100514.97
2022-10-14T19:29:49.207Z,100515.84
2022-10-14T19:32:34.284Z,100520.56
2022-10-14T19:35:21.552Z,100526.94
2022-10-14T19:38:06.550Z,100519.16
2022-10-14T19:40:51.930Z,100522.75
2022-10-14T19:43:37.078Z,100516.78
2022-10-14T19:46:23.812Z,100496.09
2022-10-14T19:49:11.648Z,100507.22
2022-10-14T19:51:56.587Z,100507.50
2022-10-14T19:54:42.886Z,100500.81
2022-10-14T19:57:27.901Z,100514.00
2022-10-14T20:00:13.755Z,100488.53
2022-10-14T20:02:59.136Z,100521.47
2022-10-14T20:05:44.229Z,100517.88
2022-10-14T20:08:29.830Z,100514.94
2022-10-14T20:11:18.538Z,100517.84
2022-10-14T20:14:04.454Z,100516.84
2022-10-14T20:16:53.560Z,100498.47
2022-10-14T20:19:41.185Z,100505.72
2022-10-14T20:22:26.388Z,100518.06
2022-10-14T20:25:11.787Z,100517.94
2022-10-14T20:27:57.195Z,100519.88
2022-10-14T20:30:42.882Z,100520.00
2022-10-14T20:33:31.490Z,100504.03
2022-10-14T20:36:19.573Z,100519.81
2022-10-14T20:39:04.775Z,100503.34
2022-10-14T20:41:50.319Z,100477.06
2022-10-14T20:44:35.347Z,100500.13
2022-10-14T20:47:20.486Z,100497.91
2022-10-14T20:50:06.398Z,100499.13
2022-10-14T20:52:51.603Z,100506.03
2022-10-14T20:55:36.501Z,100473.91
2022-10-14T20:58:23.026Z,100501.56
2022-10-14T21:01:11.460Z,100501.13
2022-10-14T21:03:59.763Z,100494.03
2022-10-14T21:06:45.103Z,100488.78
2022-10-14T21:09:30.051Z,100497.59
2022-10-14T21:12:15.744Z,100486.53
2022-10-14T21:15:00.667Z,100482.47
2022-10-14T21:17:49.532Z,100466.59
2022-10-14T21:20:35.127Z,100476.94
2022-10-14T21:23:20.240Z,100473.88
2022-10-14T21:26:05.633Z,100474.63
2022-10-14T21:28:51.182Z,100464.44
2022-10-14T21:31:36.820Z,100481.38
2022-10-14T21:34:24.766Z,100473.97
2022-10-14T21:37:09.632Z,100450.16
2022-10-14T21:39:54.633Z,100453.16
2022-10-14T21:42:39.602Z,100474.53
2022-10-14T21:45:24.912Z,100450.94
2022-10-14T21:48:10.264Z,100474.81
2022-10-14T21:51:11.160Z,100472.44
2022-10-14T21:53:57.416Z,100466.03
2022-10-14T21:56:42.731Z,100464.84
2022-10-14T21:59:27.921Z,100468.47
2022-10-14T22:02:12.993Z,100457.69
2022-10-14T22:04:57.913Z,100466.81
2022-10-14T22:07:43.097Z,100462.28
2022-10-14T22:10:43.716Z,100460.41
2022-10-14T22:13:29.897Z,100462.56
2022-10-14T22:16:16.942Z,100460.91
2022-10-14T22:19:04.564Z,100447.53
2022-10-14T22:21:50.147Z,100458.63
2022-10-14T22:24:36.186Z,100434.38
2022-10-14T22:27:21.385Z,100461.03
2022-10-14T22:30:08.192Z,100461.63
2022-10-14T22:32:53.481Z,100464.94
2022-10-14T22:35:38.732Z,100464.47
2022-10-14T22:38:23.570Z,100453.00
2022-10-14T22:41:10.306Z,100459.91
2022-10-14T22:43:57.116Z,100463.53
2022-10-14T22:46:41.963Z,100463.16
2022-10-14T22:49:26.811Z,100448.59
2022-10-14T22:52:11.808Z,100451.00
2022-10-14T22:54:56.925Z,100442.97
2022-10-14T22:57:42.191Z,100452.75
2022-10-14T23:00:27.167Z,100459.94
2022-10-14T23:03:12.485Z,100438.69
2022-10-14T23:06:00.773Z,100449.63
2022-10-14T23:08:46.840Z,100449.13
2022-10-14T23:11:32.019Z,100440.69
2022-10-14T23:14:17.015Z,100440.09
2022-10-14T23:17:02.683Z,100433.63
2022-10-14T23:19:47.637Z,100438.41
2022-10-14T23:22:34.425Z,100396.91
2022-10-14T23:25:22.920Z,100403.34
2022-10-14T23:28:08.398Z,100418.13
2022-10-14T23:30:53.329Z,100418.22
2022-10-14T23:33:38.951Z,100412.00
2022-10-14T23:36:24.152Z,100409.50
2022-10-14T23:39:09.452Z,100422.13
2022-10-14T23:41:54.665Z,100388.03
2022-10-14T23:44:39.844Z,100401.38
2022-10-14T23:47:25.225Z,100396.88
2022-10-14T23:50:10.520Z,100405.69
2022-10-14T23:52:55.595Z,100401.41
2022-10-14T23:55:42.061Z,100397.25
2022-10-14T23:58:30.944Z,100381.28
